createdAt,value
2019-02-26T00:01:46.183Z,91.00
2019-02-26T00:04:13.329Z,91.00
2019-02-26T00:06:42.466Z,91.00
2019-02-26T00:09:13.237Z,91.10
2019-02-26T00:11:42.295Z,91.30
2019-02-26T00:14:15.523Z,91.20
2019-02-26T00:16:42.415Z,91.10
2019-02-26T00:19:14.394Z,91.10
2019-02-26T00:21:45.678Z,91.30
2019-02-26T00:24:14.625Z,91.20
2019-02-26T00:26:45.673Z,91.30
2019-02-26T00:29:14.765Z,91.10
2019-02-26T00:31:46.090Z,91.30
2019-02-26T00:34:16.872Z,91.30
2019-02-26T00:36:45.377Z,91.40
2019-02-26T00:39:14.607Z,91.40
2019-02-26T00:41:43.713Z,91.50
2019-02-26T00:44:12.777Z,91.50
2019-02-26T00:46:41.736Z,91.60
2019-02-26T00:49:10.780Z,91.60
2019-02-26T00:51:41.738Z,91.80
2019-02-26T00:54:11.011Z,91.60
2019-02-26T00:56:41.110Z,91.80
2019-02-26T00:59:10.429Z,91.80
2019-02-26T01:01:39.630Z,91.80
2019-02-26T01:04:08.612Z,91.60
2019-02-26T01:06:39.076Z,91.80
2019-02-26T01:09:11.242Z,91.90
2019-02-26T01:11:40.481Z,91.90
2019-02-26T01:14:09.692Z,92.00
2019-02-26T01:16:39.449Z,92.00
2019-02-26T01:19:10.763Z,92.20
2019-02-26T01:21:39.688Z,92.10
2019-02-26T01:24:08.769Z,92.10
2019-02-26T01:26:37.693Z,92.00
2019-02-26T01:29:16.384Z,92.00
2019-02-26T01:31:44.600Z,92.30
2019-02-26T01:34:15.458Z,92.40
2019-02-26T01:36:44.975Z,92.40
2019-02-26T01:39:18.612Z,92.50
2019-02-26T01:41:47.916Z,92.40
2019-02-26T01:44:17.885Z,92.40
2019-02-26T01:46:47.062Z,92.40
2019-02-26T01:49:17.132Z,92.30
2019-02-26T01:51:47.969Z,92.20
2019-02-26T01:54:18.532Z,92.40
2019-02-26T01:56:48.133Z,92.60
2019-02-26T01:59:18.995Z,92.50
2019-02-26T02:01:51.393Z,92.70
2019-02-26T02:04:20.004Z,92.90
2019-02-26T02:06:49.029Z,93.20
2019-02-26T02:09:20.425Z,93.00
2019-02-26T02:11:50.612Z,92.70
2019-02-26T02:14:19.812Z,92.80
2019-02-26T02:16:49.056Z,92.70
2019-02-26T02:19:20.267Z,92.70
2019-02-26T02:21:49.406Z,92.80
2019-02-26T02:24:20.546Z,92.50
2019-02-26T02:26:55.354Z,92.70
2019-02-26T02:29:24.645Z,92.70
2019-02-26T02:31:54.863Z,92.70
2019-02-26T02:34:26.992Z,92.80
2019-02-26T02:37:00.431Z,92.90
2019-02-26T02:39:30.897Z,92.90
2019-02-26T02:42:01.915Z,92.90
2019-02-26T02:44:32.598Z,93.00
2019-02-26T02:47:03.703Z,92.70
2019-02-26T02:49:33.857Z,92.90
2019-02-26T02:52:04.289Z,93.00
2019-02-26T02:54:33.674Z,92.90
2019-02-26T02:57:04.844Z,92.70
2019-02-26T02:59:37.355Z,93.10
2019-02-26T03:02:04.795Z,93.60
2019-02-26T03:04:35.077Z,93.40
2019-02-26T03:07:04.185Z,93.30
2019-02-26T03:09:37.059Z,93.20
2019-02-26T03:12:04.185Z,93.20
2019-02-26T03:14:35.803Z,93.50
2019-02-26T03:17:06.426Z,93.80
2019-02-26T03:19:35.664Z,93.90
2019-02-26T03:22:07.290Z,93.90
2019-02-26T03:24:36.443Z,94.00
2019-02-26T03:27:05.625Z,94.10
2019-02-26T03:29:34.679Z,93.90
2019-02-26T03:32:03.598Z,94.00
2019-02-26T03:34:32.564Z,93.90
2019-02-26T03:37:03.881Z,93.90
2019-02-26T03:39:32.702Z,93.90
2019-02-26T03:42:02.081Z,93.90
2019-02-26T03:44:31.433Z,93.90
2019-02-26T03:47:00.431Z,93.50
2019-02-26T03:49:29.522Z,93.70
2019-02-26T03:52:00.131Z,93.70
2019-02-26T03:54:29.409Z,93.90
2019-02-26T03:56:58.411Z,93.70
2019-02-26T03:59:30.422Z,93.60
2019-02-26T04:01:59.560Z,93.50
2019-02-26T04:04:31.182Z,93.50
2019-02-26T04:07:01.453Z,93.60
2019-02-26T04:09:30.183Z,93.50
2019-02-26T04:11:59.117Z,93.40
2019-02-26T04:14:30.504Z,93.50
2019-02-26T04:17:01.494Z,93.40
2019-02-26T04:19:29.540Z,93.30
2019-02-26T04:22:26.585Z,93.40
2019-02-26T04:25:04.962Z,93.40
2019-02-26T04:27:47.335Z,93.50
2019-02-26T04:30:52.816Z,93.60
2019-02-26T04:33:41.469Z,93.70
2019-02-26T04:36:28.909Z,93.80
2019-02-26T04:39:28.252Z,93.80
2019-02-26T04:42:08.472Z,93.80
2019-02-26T04:45:05.871Z,93.90
2019-02-26T04:47:57.594Z,93.70
2019-02-26T04:50:28.686Z,93.80
2019-02-26T04:52:59.748Z,93.90
2019-02-26T04:55:29.787Z,93.80
2019-02-26T04:57:58.642Z,94.10
2019-02-26T05:00:29.916Z,94.00
2019-02-26T05:02:58.599Z,94.00
2019-02-26T05:05:31.014Z,93.80
2019-02-26T05:07:58.458Z,93.80
2019-02-26T05:10:29.738Z,93.80
2019-02-26T05:13:01.059Z,93.60
2019-02-26T05:15:32.490Z,93.70
2019-02-26T05:17:59.789Z,93.70
2019-02-26T05:20:31.264Z,93.70
2019-02-26T05:23:00.992Z,93.60
2019-02-26T05:25:31.531Z,93.90
2019-02-26T05:28:03.667Z,93.70
2019-02-26T05:30:31.827Z,93.80
2019-02-26T05:33:02.951Z,93.70
2019-02-26T05:35:31.847Z,93.60
2019-02-26T05:38:03.385Z,93.70
2019-02-26T05:40:31.447Z,93.60
2019-02-26T05:43:01.885Z,93.60
2019-02-26T05:45:33.059Z,93.60
2019-02-26T05:48:02.171Z,93.80
2019-02-26T05:50:34.680Z,93.80
2019-02-26T05:53:04.935Z,94.00
2019-02-26T05:55:32.771Z,94.10
2019-02-26T05:58:01.767Z,94.50
2019-02-26T06:00:33.333Z,94.50
2019-02-26T06:03:03.605Z,94.80
2019-02-26T06:05:32.955Z,94.80
2019-02-26T06:08:02.079Z,94.80
2019-02-26T06:10:32.621Z,94.80
2019-02-26T06:13:02.780Z,94.80
2019-02-26T06:15:34.187Z,94.60
2019-02-26T06:18:03.308Z,94.70
2019-02-26T06:20:34.531Z,94.70
2019-02-26T06:23:03.470Z,94.90
2019-02-26T06:25:32.630Z,94.90
2019-02-26T06:28:04.455Z,95.10
2019-02-26T06:30:32.541Z,95.20
2019-02-26T06:33:04.133Z,95.60
2019-02-26T06:35:33.684Z,96.10
2019-02-26T06:38:04.519Z,96.50
2019-02-26T06:40:36.731Z,97.40
2019-02-26T06:43:04.615Z,97.70
2019-02-26T06:45:35.178Z,97.40
2019-02-26T06:48:04.446Z,96.90
2019-02-26T06:50:34.095Z,96.50
2019-02-26T06:53:06.497Z,96.50
2019-02-26T06:55:35.261Z,96.60
2019-02-26T06:58:22.280Z,96.10
2019-02-26T07:00:55.134Z,95.80
2019-02-26T07:03:24.229Z,95.80
2019-02-26T07:05:53.301Z,95.80
2019-02-26T07:08:24.241Z,95.60
2019-02-26T07:10:53.080Z,95.80
2019-02-26T07:13:22.082Z,95.40
2019-02-26T07:15:51.170Z,95.20
2019-02-26T07:18:20.323Z,95.40
2019-02-26T07:20:52.041Z,95.10
2019-02-26T07:23:20.107Z,95.30
2019-02-26T07:25:49.279Z,95.60
2019-02-26T07:28:20.045Z,95.50
2019-02-26T07:30:49.031Z,96.00
2019-02-26T07:33:18.081Z,96.10
2019-02-26T07:35:47.038Z,96.30
2019-02-26T07:38:18.008Z,96.20
2019-02-26T07:40:46.797Z,96.10
2019-02-26T07:43:17.953Z,95.70
2019-02-26T07:45:46.584Z,95.50
2019-02-26T07:48:18.613Z,95.10
2019-02-26T07:50:48.352Z,95.00
2019-02-26T07:53:19.650Z,94.80
2019-02-26T07:55:47.909Z,94.80
2019-02-26T07:58:17.846Z,94.60
2019-02-26T08:00:49.515Z,94.60
2019-02-26T08:03:19.428Z,94.90
2019-02-26T08:05:48.752Z,94.70
2019-02-26T08:08:20.612Z,94.70
2019-02-26T08:10:50.626Z,94.50
2019-02-26T08:13:19.171Z,94.50
2019-02-26T08:15:48.126Z,94.20
2019-02-26T08:18:17.291Z,94.20
2019-02-26T08:20:46.417Z,94.00
2019-02-26T08:23:17.109Z,93.90
2019-02-26T08:25:46.588Z,93.80
2019-02-26T08:28:17.926Z,93.70
2019-02-26T08:30:47.385Z,93.60
2019-02-26T08:33:17.812Z,93.50
2019-02-26T08:35:46.965Z,93.50
2019-02-26T08:38:16.368Z,93.40
2019-02-26T08:40:45.759Z,93.10
2019-02-26T08:43:15.292Z,93.10
2019-02-26T08:45:44.345Z,93.00
2019-02-26T08:48:15.022Z,92.80
2019-02-26T08:50:46.204Z,92.60
2019-02-26T08:53:14.833Z,92.60
2019-02-26T08:55:43.800Z,92.40
2019-02-26T08:58:12.819Z,92.20
2019-02-26T09:00:41.857Z,92.20
2019-02-26T09:03:13.238Z,92.10
2019-02-26T09:05:41.777Z,92.00
2019-02-26T09:08:13.250Z,91.80
2019-02-26T09:10:43.742Z,91.70
2019-02-26T09:13:14.553Z,91.60
2019-02-26T09:15:43.433Z,91.50
2019-02-26T09:18:12.398Z,91.50
2019-02-26T09:20:41.413Z,91.50
2019-02-26T09:23:10.641Z,91.40
2019-02-26T09:25:39.777Z,91.30
2019-02-26T09:28:08.822Z,91.30
2019-02-26T09:30:38.859Z,91.30
2019-02-26T09:33:10.921Z,91.30
2019-02-26T09:35:39.252Z,91.20
2019-02-26T09:38:08.495Z,91.20
2019-02-26T09:40:37.446Z,91.00
2019-02-26T09:43:06.540Z,90.70
2019-02-26T09:45:35.516Z,90.40
2019-02-26T09:48:04.781Z,90.10
2019-02-26T09:50:36.725Z,90.40
2019-02-26T09:53:05.885Z,90.00
2019-02-26T09:55:39.640Z,89.40
2019-02-26T09:58:08.616Z,88.90
2019-02-26T10:00:37.699Z,88.40
2019-02-26T10:03:09.811Z,88.30
2019-02-26T10:05:37.616Z,88.00
2019-02-26T10:08:06.622Z,88.00
2019-02-26T10:10:39.173Z,87.40
2019-02-26T10:13:06.700Z,86.90
2019-02-26T10:15:37.386Z,86.50
2019-02-26T10:18:08.823Z,86.60
2019-02-26T10:20:37.116Z,86.20
2019-02-26T10:23:06.455Z,85.90
2019-02-26T10:25:38.541Z,85.20
2019-02-26T10:28:09.612Z,84.30
2019-02-26T10:30:40.971Z,83.90
2019-02-26T10:33:08.451Z,83.40
2019-02-26T10:35:39.703Z,83.50
2019-02-26T10:38:11.439Z,83.20
2019-02-26T10:40:50.546Z,82.70
2019-02-26T10:43:09.972Z,81.80
2019-02-26T10:45:41.555Z,81.60
2019-02-26T10:48:09.873Z,81.20
2019-02-26T10:50:41.945Z,81.00
2019-02-26T10:53:13.551Z,81.00
2019-02-26T10:55:43.577Z,81.00
2019-02-26T10:58:13.325Z,81.10
2019-02-26T11:00:43.400Z,80.60
2019-02-26T11:03:14.831Z,80.60
2019-02-26T11:05:45.281Z,79.80
2019-02-26T11:08:14.045Z,80.20
2019-02-26T11:10:52.396Z,80.00
2019-02-26T11:13:50.975Z,79.20
2019-02-26T11:16:45.118Z,79.10
2019-02-26T11:22:39.222Z,78.00
2019-02-26T11:25:14.162Z,77.60
2019-02-26T11:27:45.996Z,77.00
2019-02-26T11:30:23.697Z,75.20
2019-02-26T11:32:56.168Z,74.70
2019-02-26T11:35:24.624Z,74.60
2019-02-26T11:37:55.417Z,74.20
2019-02-26T11:40:28.069Z,74.00
2019-02-26T11:42:56.553Z,73.30
2019-02-26T11:45:25.653Z,72.60
2019-02-26T11:47:55.774Z,72.00
2019-02-26T11:50:28.214Z,70.70
2019-02-26T11:52:57.554Z,71.60
2019-02-26T11:55:31.354Z,69.50
2019-02-26T11:57:57.742Z,69.20
2019-02-26T12:00:39.184Z,68.80
2019-02-26T12:03:07.193Z,67.40
2019-02-26T12:05:38.884Z,67.70
2019-02-26T12:08:07.383Z,67.10
2019-02-26T12:10:37.952Z,66.20
2019-02-26T12:13:07.549Z,64.20
2019-02-26T12:15:39.901Z,64.40
2019-02-26T12:18:07.451Z,64.00
2019-02-26T12:20:38.486Z,63.70
2019-02-26T12:23:08.085Z,62.90
2019-02-26T12:25:38.652Z,63.40
2019-02-26T12:28:10.904Z,63.00
2019-02-26T12:30:41.218Z,61.90
2019-02-26T12:33:12.179Z,61.80
2019-02-26T12:35:40.835Z,61.40
2019-02-26T12:38:18.294Z,61.20
2019-02-26T12:40:46.289Z,60.70
2019-02-26T12:43:16.280Z,60.30
2019-02-26T12:45:43.451Z,59.70
2019-02-26T12:48:15.660Z,59.30
2019-02-26T12:50:43.408Z,59.20
2019-02-26T12:53:15.109Z,58.60
2019-02-26T12:55:43.149Z,57.90
2019-02-26T12:58:15.221Z,57.70
2019-02-26T13:00:43.384Z,57.80
2019-02-26T13:03:15.901Z,57.50
2019-02-26T13:05:45.588Z,56.90
2019-02-26T13:08:17.186Z,56.00
2019-02-26T13:10:47.360Z,56.50
2019-02-26T13:13:16.677Z,55.90
2019-02-26T13:15:46.009Z,55.90
2019-02-26T13:18:15.247Z,55.60
2019-02-26T13:20:44.510Z,55.70
2019-02-26T13:23:20.106Z,55.80
2019-02-26T13:25:47.669Z,56.00
2019-02-26T13:28:16.901Z,55.10
2019-02-26T13:30:46.024Z,55.00
2019-02-26T13:33:17.831Z,55.20
2019-02-26T13:35:50.742Z,56.00
2019-02-26T13:38:17.131Z,56.40
2019-02-26T13:40:46.569Z,56.50
2019-02-26T13:43:15.626Z,55.50
2019-02-26T13:45:45.222Z,55.40
2019-02-26T13:48:14.961Z,55.90
2019-02-26T13:50:44.161Z,56.10
2019-02-26T13:53:13.612Z,56.30
2019-02-26T13:55:42.717Z,56.20
2019-02-26T13:59:09.463Z,55.90
2019-02-26T14:00:43.008Z,55.60
2019-02-26T14:03:12.637Z,55.40
2019-02-26T14:05:41.591Z,55.80
2019-02-26T14:08:10.713Z,55.90
2019-02-26T14:10:39.896Z,55.60
2019-02-26T14:13:08.962Z,55.90
2019-02-26T14:15:38.249Z,55.80
2019-02-26T14:18:07.549Z,55.50
2019-02-26T14:20:36.560Z,55.70
2019-02-26T14:23:05.557Z,55.70
2019-02-26T14:25:34.502Z,55.90
2019-02-26T14:28:03.511Z,55.90
2019-02-26T14:30:32.660Z,55.70
2019-02-26T14:33:01.686Z,55.80
2019-02-26T14:35:30.740Z,56.10
2019-02-26T14:37:59.732Z,56.10
2019-02-26T14:40:28.825Z,55.80
2019-02-26T14:42:57.852Z,55.70
2019-02-26T14:45:29.971Z,56.10
2019-02-26T14:47:59.239Z,56.30
2019-02-26T14:50:28.481Z,56.80
2019-02-26T14:52:59.303Z,57.20
2019-02-26T14:55:30.128Z,56.80
2019-02-26T14:57:59.109Z,57.20
2019-02-26T15:00:30.686Z,57.20
2019-02-26T15:02:59.707Z,57.30
2019-02-26T15:05:28.787Z,57.30
2019-02-26T15:07:57.961Z,57.00
2019-02-26T15:10:27.060Z,57.10
2019-02-26T15:13:35.995Z,57.20
2019-02-26T15:16:05.147Z,57.50
2019-02-26T15:18:35.799Z,57.90
2019-02-26T15:21:05.024Z,58.30
2019-02-26T15:23:34.145Z,58.20
2019-02-26T15:26:03.313Z,58.40
2019-02-26T15:28:32.353Z,58.60
2019-02-26T15:31:01.359Z,58.20
2019-02-26T15:33:30.661Z,58.30
2019-02-26T15:35:59.723Z,58.40
2019-02-26T15:38:28.670Z,58.50
2019-02-26T15:40:57.712Z,58.30
2019-02-26T15:43:26.708Z,58.20
2019-02-26T15:45:57.749Z,58.50
2019-02-26T15:48:26.491Z,58.90
2019-02-26T15:50:55.516Z,58.60
2019-02-26T15:53:24.882Z,58.80
2019-02-26T15:55:54.102Z,59.00
2019-02-26T15:58:23.287Z,59.20
2019-02-26T16:00:52.508Z,59.20
2019-02-26T16:03:21.764Z,59.30
2019-02-26T16:05:51.082Z,58.80
2019-02-26T16:08:20.118Z,59.10
2019-02-26T16:10:49.414Z,59.20
2019-02-26T16:13:18.527Z,59.50
2019-02-26T16:15:47.727Z,59.90
2019-02-26T16:18:17.053Z,60.50
2019-02-26T16:20:46.481Z,60.70
2019-02-26T16:23:15.536Z,60.90
2019-02-26T16:25:44.484Z,61.00
2019-02-26T16:28:13.469Z,61.40
2019-02-26T16:30:42.740Z,61.40
2019-02-26T16:33:13.672Z,61.50
2019-02-26T16:35:42.693Z,61.70
2019-02-26T16:38:13.896Z,61.80
2019-02-26T16:40:42.521Z,62.00
2019-02-26T16:43:11.830Z,62.30
2019-02-26T16:45:40.980Z,63.20
2019-02-26T16:48:10.069Z,62.40
2019-02-26T16:50:39.424Z,62.10
2019-02-26T16:53:08.657Z,62.90
2019-02-26T16:55:37.787Z,63.00
2019-02-26T16:58:07.129Z,63.30
2019-02-26T17:00:36.409Z,65.00
2019-02-26T17:03:05.820Z,66.00
2019-02-26T17:05:35.119Z,66.40
2019-02-26T17:08:04.205Z,67.10
2019-02-26T17:10:33.575Z,67.20
2019-02-26T17:13:03.118Z,67.10
2019-02-26T17:15:33.498Z,68.60
2019-02-26T17:18:02.773Z,69.50
2019-02-26T17:20:31.821Z,69.80
2019-02-26T17:23:00.853Z,70.00
2019-02-26T17:25:30.067Z,70.80
2019-02-26T17:27:59.151Z,70.10
2019-02-26T17:30:28.378Z,69.80
2019-02-26T17:32:57.535Z,69.90
2019-02-26T17:35:28.990Z,69.50
2019-02-26T17:37:57.497Z,69.50
2019-02-26T17:40:27.333Z,69.10
2019-02-26T17:42:56.378Z,69.10
2019-02-26T17:45:34.922Z,69.30
2019-02-26T17:48:05.585Z,69.50
2019-02-26T17:50:39.596Z,70.50
2019-02-26T17:53:08.857Z,71.70
2019-02-26T17:55:38.082Z,71.30
2019-02-26T17:58:09.790Z,72.00
2019-02-26T18:00:39.572Z,72.20
2019-02-26T18:03:08.884Z,72.40
2019-02-26T18:05:50.459Z,72.80
2019-02-26T18:08:08.921Z,73.30
2019-02-26T18:10:39.107Z,73.70
2019-02-26T18:13:08.152Z,74.00
2019-02-26T18:15:37.266Z,74.70
2019-02-26T18:18:06.607Z,75.70
2019-02-26T18:20:35.688Z,75.80
2019-02-26T18:23:04.992Z,75.30
2019-02-26T18:25:34.076Z,75.50
2019-02-26T18:28:03.204Z,75.70
2019-02-26T18:30:32.254Z,75.60
2019-02-26T18:33:01.289Z,75.80
2019-02-26T18:35:30.513Z,76.40
2019-02-26T18:37:59.549Z,76.40
2019-02-26T18:40:29.051Z,76.60
2019-02-26T18:42:58.238Z,77.30
2019-02-26T18:45:31.266Z,78.30
2019-02-26T18:48:00.358Z,79.20
2019-02-26T18:50:29.674Z,79.20
2019-02-26T18:52:59.007Z,79.40
2019-02-26T18:55:32.297Z,79.40
2019-02-26T18:57:59.399Z,79.50
2019-02-26T19:00:32.711Z,79.50
2019-02-26T19:03:01.814Z,79.80
2019-02-26T19:05:31.155Z,79.80
2019-02-26T19:08:00.846Z,80.10
2019-02-26T19:10:29.832Z,80.20
2019-02-26T19:13:02.426Z,80.70
2019-02-26T19:15:31.718Z,81.00
2019-02-26T19:18:02.660Z,81.30
2019-02-26T19:20:39.414Z,82.20
2019-02-26T19:23:08.749Z,82.50
2019-02-26T19:25:41.389Z,82.80
2019-02-26T19:28:09.872Z,83.30
2019-02-26T19:30:39.248Z,83.70
2019-02-26T19:33:08.234Z,84.00
2019-02-26T19:35:40.294Z,83.80
2019-02-26T19:38:08.603Z,84.00
2019-02-26T19:40:43.523Z,84.20
2019-02-26T19:43:12.701Z,84.30
2019-02-26T19:45:44.251Z,84.70
2019-02-26T19:48:12.711Z,84.70
2019-02-26T19:50:45.630Z,85.00
2019-02-26T19:53:12.555Z,85.30
2019-02-26T19:55:43.959Z,85.60
2019-02-26T19:58:13.074Z,86.10
2019-02-26T20:00:42.252Z,86.20
2019-02-26T20:03:11.393Z,86.70
2019-02-26T20:05:41.261Z,87.00
2019-02-26T20:08:10.566Z,87.50
2019-02-26T20:10:39.579Z,87.60
2019-02-26T20:13:12.457Z,87.70
2019-02-26T20:15:39.863Z,88.60
2019-02-26T20:18:19.770Z,88.40
2019-02-26T20:20:41.083Z,88.30
2019-02-26T20:23:10.982Z,88.50
2019-02-26T20:25:42.476Z,89.00
2019-02-26T20:28:11.473Z,89.20
2019-02-26T20:30:40.572Z,89.50
2019-02-26T20:33:09.678Z,89.40
2019-02-26T20:35:38.697Z,89.70
2019-02-26T20:38:07.815Z,90.00
2019-02-26T20:40:37.485Z,90.20
2019-02-26T20:43:06.667Z,90.20
2019-02-26T20:45:35.836Z,90.20
2019-02-26T20:48:05.205Z,90.40
2019-02-26T20:50:34.439Z,90.50
2019-02-26T20:53:05.663Z,90.50
2019-02-26T20:55:34.324Z,90.60
2019-02-26T20:58:03.332Z,90.40
2019-02-26T21:00:32.377Z,90.60
2019-02-26T21:03:01.408Z,90.70
2019-02-26T21:05:30.446Z,90.50
2019-02-26T21:07:59.520Z,90.50
2019-02-26T21:10:28.628Z,90.60
2019-02-26T21:13:01.641Z,90.70
2019-02-26T21:15:28.553Z,90.80
2019-02-26T21:17:58.210Z,90.60
2019-02-26T21:20:27.949Z,90.70
2019-02-26T21:22:57.102Z,90.80
2019-02-26T21:25:26.324Z,90.90
2019-02-26T21:27:55.595Z,90.90
2019-02-26T21:30:25.443Z,90.90
2019-02-26T21:32:57.837Z,90.80
2019-02-26T21:35:25.256Z,90.90
2019-02-26T21:37:54.374Z,91.20
2019-02-26T21:40:23.674Z,91.10
2019-02-26T21:42:52.668Z,91.10
2019-02-26T21:45:21.647Z,91.20
2019-02-26T21:47:50.666Z,91.20
2019-02-26T21:50:22.086Z,91.10
2019-02-26T21:53:05.797Z,91.20
2019-02-26T21:55:21.048Z,91.50
2019-02-26T21:57:50.190Z,91.10
2019-02-26T22:00:21.032Z,91.30
2019-02-26T22:02:52.419Z,91.60
2019-02-26T22:05:20.919Z,91.40
2019-02-26T22:07:52.392Z,91.60
2019-02-26T22:10:21.885Z,91.30
2019-02-26T22:12:56.628Z,91.40
2019-02-26T22:15:24.490Z,91.40
2019-02-26T22:17:57.834Z,91.50
2019-02-26T22:20:35.811Z,91.40
2019-02-26T22:22:55.139Z,91.30
2019-02-26T22:25:24.225Z,91.50
2019-02-26T22:27:53.584Z,91.50
2019-02-26T22:30:22.950Z,91.60
2019-02-26T22:32:51.971Z,91.60
2019-02-26T22:35:25.656Z,91.30
2019-02-26T22:37:52.337Z,91.40
2019-02-26T22:40:22.834Z,91.50
2019-02-26T22:42:52.318Z,91.70
2019-02-26T22:45:22.280Z,91.40
2019-02-26T22:47:51.558Z,91.60
2019-02-26T22:50:20.560Z,91.70
2019-02-26T22:52:49.629Z,91.70
2019-02-26T22:55:18.734Z,91.70
2019-02-26T22:57:48.900Z,92.10
2019-02-26T23:00:54.581Z,92.00
2019-02-26T23:03:23.873Z,92.10
2019-02-26T23:05:52.979Z,92.20
2019-02-26T23:08:22.107Z,92.20
2019-02-26T23:10:51.469Z,92.30
2019-02-26T23:13:21.004Z,92.40
2019-02-26T23:15:50.402Z,92.30
2019-02-26T23:18:20.310Z,92.50
2019-02-26T23:20:49.442Z,92.40
2019-02-26T23:23:21.688Z,92.30
2019-02-26T23:25:49.583Z,92.30
2019-02-26T23:28:21.671Z,92.30
2019-02-26T23:30:49.413Z,92.20
2019-02-26T23:33:18.701Z,92.20
2019-02-26T23:35:47.782Z,92.10
2019-02-26T23:38:16.730Z,92.10
2019-02-26T23:40:45.872Z,92.10
2019-02-26T23:43:14.964Z,92.20
2019-02-26T23:45:47.433Z,92.10
2019-02-26T23:48:16.538Z,92.10
2019-02-26T23:50:47.301Z,92.00
2019-02-26T23:53:16.812Z,92.00
2019-02-26T23:55:47.262Z,91.90
2019-02-26T23:58:17.022Z,92.00
